sensor_id;sensor_type;location;lat;lon;timestamp;P1;durP1;ratioP1;P2;durP2;ratioP2
69253;SDS011;56364;41.816;12.448;2023-06-22T00:00:21;17.40;;;4.55;;
69253;SDS011;56364;41.816;12.448;2023-06-22T00:02:50;17.02;;;5.07;;
69253;SDS011;56364;41.816;12.448;2023-06-22T00:05:19;10.95;;;4.18;;
69253;SDS011;56364;41.816;12.448;2023-06-22T00:07:45;10.98;;;4.53;;
69253;SDS011;56364;41.816;12.448;2023-06-22T00:10:12;15.13;;;4.53;;
69253;SDS011;56364;41.816;12.448;2023-06-22T00:12:38;10.75;;;3.88;;
69253;SDS011;56364;41.816;12.448;2023-06-22T00:15:05;12.60;;;4.60;;
69253;SDS011;56364;41.816;12.448;2023-06-22T00:17:31;12.43;;;4.57;;
69253;SDS011;56364;41.816;12.448;2023-06-22T00:22:33;12.65;;;4.65;;
69253;SDS011;56364;41.816;12.448;2023-06-22T00:25:03;9.77;;;4.20;;
69253;SDS011;56364;41.816;12.448;2023-06-22T00:27:30;11.30;;;4.28;;
69253;SDS011;56364;41.816;12.448;2023-06-22T00:29:56;7.30;;;3.97;;
69253;SDS011;56364;41.816;12.448;2023-06-22T00:32:22;10.50;;;4.68;;
69253;SDS011;56364;41.816;12.448;2023-06-22T00:34:48;10.45;;;4.15;;
69253;SDS011;56364;41.816;12.448;2023-06-22T00:37:15;8.70;;;4.22;;
69253;SDS011;56364;41.816;12.448;2023-06-22T00:39:42;10.05;;;4.88;;
69253;SDS011;56364;41.816;12.448;2023-06-22T00:42:08;12.20;;;4.30;;
69253;SDS011;56364;41.816;12.448;2023-06-22T00:44:35;8.10;;;4.60;;
69253;SDS011;56364;41.816;12.448;2023-06-22T00:47:01;12.68;;;4.63;;
69253;SDS011;56364;41.816;12.448;2023-06-22T00:49:27;11.77;;;4.18;;
69253;SDS011;56364;41.816;12.448;2023-06-22T00:51:53;14.48;;;4.95;;
69253;SDS011;56364;41.816;12.448;2023-06-22T00:54:20;11.70;;;4.15;;
69253;SDS011;56364;41.816;12.448;2023-06-22T00:56:52;14.48;;;5.32;;
69253;SDS011;56364;41.816;12.448;2023-06-22T00:59:21;7.93;;;4.13;;
69253;SDS011;56364;41.816;12.448;2023-06-22T01:01:50;9.50;;;4.70;;
69253;SDS011;56364;41.816;12.448;2023-06-22T01:04:16;12.43;;;4.30;;
69253;SDS011;56364;41.816;12.448;2023-06-22T01:06:49;9.35;;;4.45;;
69253;SDS011;56364;41.816;12.448;2023-06-22T01:09:19;12.15;;;4.72;;
69253;SDS011;56364;41.816;12.448;2023-06-22T01:11:50;10.55;;;4.97;;
69253;SDS011;56364;41.816;12.448;2023-06-22T01:14:20;8.95;;;4.47;;
69253;SDS011;56364;41.816;12.448;2023-06-22T01:16:49;9.55;;;4.55;;
69253;SDS011;56364;41.816;12.448;2023-06-22T01:21:45;9.02;;;4.60;;
69253;SDS011;56364;41.816;12.448;2023-06-22T01:24:28;8.77;;;5.03;;
69253;SDS011;56364;41.816;12.448;2023-06-22T01:29:44;9.93;;;4.53;;
69253;SDS011;56364;41.816;12.448;2023-06-22T01:32:10;10.18;;;4.57;;
69253;SDS011;56364;41.816;12.448;2023-06-22T01:34:37;12.48;;;4.97;;
69253;SDS011;56364;41.816;12.448;2023-06-22T01:37:07;9.15;;;4.45;;
69253;SDS011;56364;41.816;12.448;2023-06-22T01:39:36;10.23;;;4.47;;
69253;SDS011;56364;41.816;12.448;2023-06-22T01:42:02;11.68;;;4.78;;
69253;SDS011;56364;41.816;12.448;2023-06-22T01:44:30;12.27;;;4.95;;
69253;SDS011;56364;41.816;12.448;2023-06-22T01:46:56;11.48;;;4.57;;
69253;SDS011;56364;41.816;12.448;2023-06-22T01:49:22;13.27;;;5.15;;
69253;SDS011;56364;41.816;12.448;2023-06-22T01:51:48;10.88;;;4.35;;
69253;SDS011;56364;41.816;12.448;2023-06-22T01:54:15;13.20;;;5.07;;
69253;SDS011;56364;41.816;12.448;2023-06-22T01:56:41;12.25;;;5.35;;
69253;SDS011;56364;41.816;12.448;2023-06-22T02:04:30;14.35;;;5.53;;
69253;SDS011;56364;41.816;12.448;2023-06-22T02:06:58;9.52;;;4.80;;
69253;SDS011;56364;41.816;12.448;2023-06-22T02:09:30;12.10;;;5.60;;
69253;SDS011;56364;41.816;12.448;2023-06-22T02:11:57;11.40;;;4.85;;
69253;SDS011;56364;41.816;12.448;2023-06-22T02:14:24;12.07;;;4.95;;
69253;SDS011;56364;41.816;12.448;2023-06-22T02:16:51;9.93;;;5.05;;
69253;SDS011;56364;41.816;12.448;2023-06-22T02:19:22;11.57;;;5.05;;
69253;SDS011;56364;41.816;12.448;2023-06-22T02:24:36;13.48;;;4.97;;
69253;SDS011;56364;41.816;12.448;2023-06-22T02:27:02;10.05;;;4.95;;
69253;SDS011;56364;41.816;12.448;2023-06-22T02:52:50;18.90;;;5.72;;
69253;SDS011;56364;41.816;12.448;2023-06-22T02:55:17;14.65;;;6.03;;
69253;SDS011;56364;41.816;12.448;2023-06-22T02:57:43;11.68;;;4.70;;
69253;SDS011;56364;41.816;12.448;2023-06-22T03:00:14;13.20;;;4.72;;
69253;SDS011;56364;41.816;12.448;2023-06-22T03:02:45;13.13;;;5.05;;
69253;SDS011;56364;41.816;12.448;2023-06-22T03:05:11;9.60;;;4.65;;
69253;SDS011;56364;41.816;12.448;2023-06-22T03:07:43;14.43;;;5.13;;
69253;SDS011;56364;41.816;12.448;2023-06-22T03:26:09;14.77;;;5.68;;
69253;SDS011;56364;41.816;12.448;2023-06-22T03:28:37;18.60;;;5.47;;
69253;SDS011;56364;41.816;12.448;2023-06-22T03:57:28;13.30;;;5.00;;
69253;SDS011;56364;41.816;12.448;2023-06-22T03:59:56;11.38;;;4.85;;
69253;SDS011;56364;41.816;12.448;2023-06-22T04:02:23;12.95;;;5.30;;
69253;SDS011;56364;41.816;12.448;2023-06-22T04:04:49;14.13;;;4.88;;
69253;SDS011;56364;41.816;12.448;2023-06-22T04:07:15;14.55;;;5.20;;
69253;SDS011;56364;41.816;12.448;2023-06-22T04:09:42;11.95;;;5.45;;
69253;SDS011;56364;41.816;12.448;2023-06-22T04:12:09;11.00;;;5.03;;
69253;SDS011;56364;41.816;12.448;2023-06-22T04:14:35;10.85;;;4.85;;
69253;SDS011;56364;41.816;12.448;2023-06-22T04:17:01;16.27;;;5.20;;
69253;SDS011;56364;41.816;12.448;2023-06-22T04:19:27;12.43;;;5.30;;
69253;SDS011;56364;41.816;12.448;2023-06-22T04:21:53;12.38;;;4.63;;
69253;SDS011;56364;41.816;12.448;2023-06-22T04:24:19;14.05;;;5.30;;
69253;SDS011;56364;41.816;12.448;2023-06-22T04:26:45;11.05;;;5.03;;
69253;SDS011;56364;41.816;12.448;2023-06-22T04:29:12;9.25;;;4.90;;
69253;SDS011;56364;41.816;12.448;2023-06-22T04:31:38;10.60;;;5.00;;
69253;SDS011;56364;41.816;12.448;2023-06-22T04:34:04;13.15;;;6.07;;
69253;SDS011;56364;41.816;12.448;2023-06-22T04:36:38;8.80;;;5.00;;
69253;SDS011;56364;41.816;12.448;2023-06-22T04:39:05;10.68;;;4.88;;
69253;SDS011;56364;41.816;12.448;2023-06-22T04:41:32;10.95;;;4.47;;
69253;SDS011;56364;41.816;12.448;2023-06-22T04:44:06;11.23;;;5.05;;
69253;SDS011;56364;41.816;12.448;2023-06-22T04:46:33;14.82;;;6.00;;
69253;SDS011;56364;41.816;12.448;2023-06-22T04:49:06;11.40;;;4.97;;
69253;SDS011;56364;41.816;12.448;2023-06-22T04:51:43;14.52;;;4.90;;
69253;SDS011;56364;41.816;12.448;2023-06-22T04:54:09;13.05;;;5.28;;
69253;SDS011;56364;41.816;12.448;2023-06-22T04:56:51;20.27;;;5.40;;
69253;SDS011;56364;41.816;12.448;2023-06-22T05:02:03;11.38;;;5.32;;
69253;SDS011;56364;41.816;12.448;2023-06-22T05:04:29;9.65;;;4.88;;
69253;SDS011;56364;41.816;12.448;2023-06-22T05:07:00;12.52;;;5.38;;
69253;SDS011;56364;41.816;12.448;2023-06-22T05:09:48;14.00;;;4.68;;
69253;SDS011;56364;41.816;12.448;2023-06-22T05:12:22;12.98;;;4.30;;
69253;SDS011;56364;41.816;12.448;2023-06-22T05:14:49;12.15;;;4.72;;
69253;SDS011;56364;41.816;12.448;2023-06-22T05:20:40;11.90;;;4.30;;
69253;SDS011;56364;41.816;12.448;2023-06-22T05:23:13;12.20;;;4.80;;
69253;SDS011;56364;41.816;12.448;2023-06-22T05:25:39;17.02;;;5.05;;
69253;SDS011;56364;41.816;12.448;2023-06-22T05:28:13;10.13;;;4.18;;
69253;SDS011;56364;41.816;12.448;2023-06-22T05:30:47;9.40;;;4.15;;
69253;SDS011;56364;41.816;12.448;2023-06-22T05:33:13;11.98;;;4.55;;
69253;SDS011;56364;41.816;12.448;2023-06-22T05:35:39;11.20;;;4.28;;
69253;SDS011;56364;41.816;12.448;2023-06-22T05:38:07;8.80;;;4.05;;
69253;SDS011;56364;41.816;12.448;2023-06-22T05:40:38;12.10;;;4.20;;
69253;SDS011;56364;41.816;12.448;2023-06-22T05:43:06;11.77;;;4.38;;
69253;SDS011;56364;41.816;12.448;2023-06-22T05:45:36;17.42;;;4.22;;
69253;SDS011;56364;41.816;12.448;2023-06-22T05:48:11;12.45;;;3.97;;
69253;SDS011;56364;41.816;12.448;2023-06-22T05:50:53;10.13;;;3.85;;
69253;SDS011;56364;41.816;12.448;2023-06-22T05:55:46;9.70;;;3.67;;
69253;SDS011;56364;41.816;12.448;2023-06-22T05:58:13;13.70;;;4.30;;
69253;SDS011;56364;41.816;12.448;2023-06-22T06:00:39;14.80;;;4.30;;
69253;SDS011;56364;41.816;12.448;2023-06-22T06:03:06;9.40;;;4.10;;
69253;SDS011;56364;41.816;12.448;2023-06-22T06:05:33;15.70;;;4.38;;
69253;SDS011;56364;41.816;12.448;2023-06-22T06:08:00;10.73;;;4.40;;
69253;SDS011;56364;41.816;12.448;2023-06-22T06:10:26;12.45;;;3.65;;
69253;SDS011;56364;41.816;12.448;2023-06-22T06:12:54;18.05;;;4.75;;
69253;SDS011;56364;41.816;12.448;2023-06-22T06:15:20;15.88;;;4.25;;
69253;SDS011;56364;41.816;12.448;2023-06-22T06:17:50;14.75;;;3.92;;
69253;SDS011;56364;41.816;12.448;2023-06-22T06:20:21;12.02;;;4.97;;
69253;SDS011;56364;41.816;12.448;2023-06-22T06:22:47;14.35;;;4.25;;
69253;SDS011;56364;41.816;12.448;2023-06-22T06:25:14;9.18;;;3.95;;
69253;SDS011;56364;41.816;12.448;2023-06-22T06:30:30;10.63;;;3.75;;
69253;SDS011;56364;41.816;12.448;2023-06-22T06:32:56;7.68;;;3.95;;
69253;SDS011;56364;41.816;12.448;2023-06-22T06:35:22;14.00;;;3.80;;
69253;SDS011;56364;41.816;12.448;2023-06-22T06:37:48;10.23;;;3.95;;
69253;SDS011;56364;41.816;12.448;2023-06-22T06:40:15;8.70;;;4.18;;
69253;SDS011;56364;41.816;12.448;2023-06-22T06:42:46;11.45;;;3.42;;
69253;SDS011;56364;41.816;12.448;2023-06-22T06:45:15;11.13;;;3.88;;
69253;SDS011;56364;41.816;12.448;2023-06-22T06:47:42;9.73;;;3.78;;
69253;SDS011;56364;41.816;12.448;2023-06-22T06:50:11;12.90;;;3.72;;
69253;SDS011;56364;41.816;12.448;2023-06-22T06:52:40;10.15;;;4.70;;
69253;SDS011;56364;41.816;12.448;2023-06-22T06:55:07;13.68;;;3.20;;
69253;SDS011;56364;41.816;12.448;2023-06-22T06:57:36;18.00;;;4.07;;
69253;SDS011;56364;41.816;12.448;2023-06-22T07:00:03;11.85;;;3.45;;
69253;SDS011;56364;41.816;12.448;2023-06-22T07:02:34;10.38;;;3.03;;
69253;SDS011;56364;41.816;12.448;2023-06-22T07:05:03;10.57;;;3.35;;
69253;SDS011;56364;41.816;12.448;2023-06-22T07:07:31;20.25;;;3.97;;
69253;SDS011;56364;41.816;12.448;2023-06-22T07:10:01;8.00;;;3.30;;
69253;SDS011;56364;41.816;12.448;2023-06-22T07:12:28;12.90;;;3.22;;
69253;SDS011;56364;41.816;12.448;2023-06-22T07:15:00;9.98;;;3.60;;
69253;SDS011;56364;41.816;12.448;2023-06-22T07:22:34;11.60;;;3.72;;
69253;SDS011;56364;41.816;12.448;2023-06-22T07:25:01;9.45;;;3.40;;
69253;SDS011;56364;41.816;12.448;2023-06-22T07:27:30;12.20;;;3.50;;
69253;SDS011;56364;41.816;12.448;2023-06-22T07:30:04;12.93;;;3.85;;
69253;SDS011;56364;41.816;12.448;2023-06-22T07:32:30;11.00;;;4.22;;
69253;SDS011;56364;41.816;12.448;2023-06-22T07:34:56;10.55;;;3.00;;
69253;SDS011;56364;41.816;12.448;2023-06-22T07:37:23;14.02;;;3.78;;
69253;SDS011;56364;41.816;12.448;2023-06-22T07:39:52;10.07;;;3.45;;
69253;SDS011;56364;41.816;12.448;2023-06-22T07:42:23;14.23;;;3.83;;
69253;SDS011;56364;41.816;12.448;2023-06-22T07:44:49;15.05;;;3.53;;
69253;SDS011;56364;41.816;12.448;2023-06-22T07:47:18;10.82;;;3.88;;
69253;SDS011;56364;41.816;12.448;2023-06-22T07:49:44;11.38;;;4.38;;
69253;SDS011;56364;41.816;12.448;2023-06-22T07:52:10;11.38;;;3.50;;
69253;SDS011;56364;41.816;12.448;2023-06-22T07:54:37;12.25;;;3.60;;
69253;SDS011;56364;41.816;12.448;2023-06-22T07:57:03;10.30;;;3.72;;
69253;SDS011;56364;41.816;12.448;2023-06-22T07:59:33;17.17;;;3.72;;
69253;SDS011;56364;41.816;12.448;2023-06-22T08:17:48;16.60;;;3.45;;
69253;SDS011;56364;41.816;12.448;2023-06-22T08:22:44;11.07;;;3.63;;
69253;SDS011;56364;41.816;12.448;2023-06-22T08:25:10;20.80;;;3.63;;
69253;SDS011;56364;41.816;12.448;2023-06-22T08:27:39;12.45;;;3.03;;
69253;SDS011;56364;41.816;12.448;2023-06-22T08:30:06;11.57;;;3.33;;
69253;SDS011;56364;41.816;12.448;2023-06-22T08:35:06;14.88;;;4.10;;
69253;SDS011;56364;41.816;12.448;2023-06-22T08:37:39;15.45;;;4.32;;
69253;SDS011;56364;41.816;12.448;2023-06-22T08:40:06;11.25;;;3.50;;
69253;SDS011;56364;41.816;12.448;2023-06-22T08:42:36;12.52;;;3.92;;
69253;SDS011;56364;41.816;12.448;2023-06-22T08:45:03;7.70;;;3.67;;
69253;SDS011;56364;41.816;12.448;2023-06-22T08:47:35;13.88;;;3.67;;
69253;SDS011;56364;41.816;12.448;2023-06-22T08:50:21;10.25;;;3.13;;
69253;SDS011;56364;41.816;12.448;2023-06-22T08:55:24;12.23;;;4.28;;
69253;SDS011;56364;41.816;12.448;2023-06-22T08:57:53;8.57;;;3.10;;
69253;SDS011;56364;41.816;12.448;2023-06-22T09:00:20;13.38;;;3.30;;
69253;SDS011;56364;41.816;12.448;2023-06-22T09:02:49;15.48;;;3.78;;
69253;SDS011;56364;41.816;12.448;2023-06-22T09:05:15;13.73;;;4.55;;
69253;SDS011;56364;41.816;12.448;2023-06-22T09:07:42;15.65;;;4.15;;
69253;SDS011;56364;41.816;12.448;2023-06-22T09:10:08;18.13;;;4.35;;
69253;SDS011;56364;41.816;12.448;2023-06-22T09:12:34;9.18;;;3.42;;
69253;SDS011;56364;41.816;12.448;2023-06-22T09:15:02;16.98;;;3.80;;
69253;SDS011;56364;41.816;12.448;2023-06-22T09:17:31;12.68;;;3.72;;
69253;SDS011;56364;41.816;12.448;2023-06-22T09:20:03;13.18;;;3.80;;
69253;SDS011;56364;41.816;12.448;2023-06-22T09:22:34;13.80;;;3.58;;
69253;SDS011;56364;41.816;12.448;2023-06-22T09:25:00;12.23;;;4.07;;
69253;SDS011;56364;41.816;12.448;2023-06-22T09:27:28;14.30;;;3.85;;
69253;SDS011;56364;41.816;12.448;2023-06-22T09:29:54;18.10;;;4.43;;
69253;SDS011;56364;41.816;12.448;2023-06-22T09:32:20;14.43;;;4.53;;
69253;SDS011;56364;41.816;12.448;2023-06-22T09:34:52;7.15;;;3.80;;
69253;SDS011;56364;41.816;12.448;2023-06-22T09:39:44;10.38;;;3.70;;
69253;SDS011;56364;41.816;12.448;2023-06-22T09:42:13;13.95;;;3.78;;
69253;SDS011;56364;41.816;12.448;2023-06-22T09:44:41;10.27;;;3.45;;
69253;SDS011;56364;41.816;12.448;2023-06-22T09:47:08;10.50;;;3.90;;
69253;SDS011;56364;41.816;12.448;2023-06-22T09:49:34;11.95;;;3.60;;
69253;SDS011;56364;41.816;12.448;2023-06-22T09:52:00;12.60;;;3.60;;
69253;SDS011;56364;41.816;12.448;2023-06-22T09:54:26;8.85;;;3.70;;
69253;SDS011;56364;41.816;12.448;2023-06-22T09:56:52;9.70;;;3.42;;
69253;SDS011;56364;41.816;12.448;2023-06-22T09:59:18;9.55;;;3.15;;
69253;SDS011;56364;41.816;12.448;2023-06-22T10:01:44;12.75;;;3.40;;
69253;SDS011;56364;41.816;12.448;2023-06-22T10:04:10;11.95;;;3.35;;
69253;SDS011;56364;41.816;12.448;2023-06-22T10:06:36;10.95;;;4.15;;
69253;SDS011;56364;41.816;12.448;2023-06-22T10:09:05;11.77;;;3.70;;
69253;SDS011;56364;41.816;12.448;2023-06-22T10:11:32;15.98;;;4.28;;
69253;SDS011;56364;41.816;12.448;2023-06-22T10:14:00;11.52;;;3.78;;
69253;SDS011;56364;41.816;12.448;2023-06-22T10:16:35;11.60;;;4.40;;
69253;SDS011;56364;41.816;12.448;2023-06-22T10:19:09;10.77;;;3.88;;
69253;SDS011;56364;41.816;12.448;2023-06-22T10:21:45;13.02;;;3.67;;
69253;SDS011;56364;41.816;12.448;2023-06-22T10:24:11;11.48;;;3.60;;
69253;SDS011;56364;41.816;12.448;2023-06-22T10:26:37;12.00;;;4.28;;
69253;SDS011;56364;41.816;12.448;2023-06-22T10:29:04;10.38;;;3.88;;
69253;SDS011;56364;41.816;12.448;2023-06-22T10:34:06;8.73;;;3.58;;
69253;SDS011;56364;41.816;12.448;2023-06-22T10:36:32;9.80;;;3.67;;
69253;SDS011;56364;41.816;12.448;2023-06-22T10:38:58;8.38;;;4.10;;
69253;SDS011;56364;41.816;12.448;2023-06-22T10:41:24;11.23;;;4.05;;
69253;SDS011;56364;41.816;12.448;2023-06-22T10:43:50;9.50;;;3.85;;
69253;SDS011;56364;41.816;12.448;2023-06-22T10:46:16;8.05;;;3.53;;
69253;SDS011;56364;41.816;12.448;2023-06-22T10:48:42;11.63;;;3.97;;
69253;SDS011;56364;41.816;12.448;2023-06-22T10:53:53;10.40;;;3.50;;
69253;SDS011;56364;41.816;12.448;2023-06-22T10:59:07;9.25;;;3.30;;
69253;SDS011;56364;41.816;12.448;2023-06-22T11:01:33;9.25;;;3.47;;
69253;SDS011;56364;41.816;12.448;2023-06-22T11:04:03;13.20;;;3.08;;
69253;SDS011;56364;41.816;12.448;2023-06-22T11:06:32;9.75;;;3.13;;
69253;SDS011;56364;41.816;12.448;2023-06-22T11:08:58;10.13;;;3.45;;
69253;SDS011;56364;41.816;12.448;2023-06-22T11:11:25;9.43;;;3.40;;
69253;SDS011;56364;41.816;12.448;2023-06-22T11:13:53;6.43;;;2.88;;
69253;SDS011;56364;41.816;12.448;2023-06-22T11:16:19;6.80;;;3.22;;
69253;SDS011;56364;41.816;12.448;2023-06-22T11:18:45;7.75;;;3.38;;
69253;SDS011;56364;41.816;12.448;2023-06-22T11:21:11;4.75;;;2.65;;
69253;SDS011;56364;41.816;12.448;2023-06-22T11:23:37;7.32;;;3.08;;
69253;SDS011;56364;41.816;12.448;2023-06-22T11:26:06;8.32;;;2.70;;
69253;SDS011;56364;41.816;12.448;2023-06-22T11:28:41;8.07;;;2.88;;
69253;SDS011;56364;41.816;12.448;2023-06-22T11:31:11;7.05;;;2.75;;
69253;SDS011;56364;41.816;12.448;2023-06-22T11:33:37;6.97;;;3.05;;
69253;SDS011;56364;41.816;12.448;2023-06-22T11:36:03;12.32;;;3.35;;
69253;SDS011;56364;41.816;12.448;2023-06-22T11:38:49;16.85;;;4.72;;
69253;SDS011;56364;41.816;12.448;2023-06-22T11:41:16;14.45;;;4.78;;
69253;SDS011;56364;41.816;12.448;2023-06-22T11:43:42;10.52;;;4.53;;
69253;SDS011;56364;41.816;12.448;2023-06-22T11:46:08;9.52;;;4.35;;
69253;SDS011;56364;41.816;12.448;2023-06-22T11:48:35;10.32;;;4.05;;
69253;SDS011;56364;41.816;12.448;2023-06-22T11:51:01;10.48;;;4.25;;
69253;SDS011;56364;41.816;12.448;2023-06-22T11:58:35;9.07;;;4.70;;
69253;SDS011;56364;41.816;12.448;2023-06-22T12:01:19;13.27;;;4.10;;
69253;SDS011;56364;41.816;12.448;2023-06-22T12:03:45;7.57;;;3.95;;
69253;SDS011;56364;41.816;12.448;2023-06-22T12:06:13;7.95;;;4.05;;
69253;SDS011;56364;41.816;12.448;2023-06-22T12:08:39;6.38;;;3.97;;
69253;SDS011;56364;41.816;12.448;2023-06-22T12:34:22;4.75;;;2.90;;
69253;SDS011;56364;41.816;12.448;2023-06-22T12:42:11;6.22;;;3.00;;
69253;SDS011;56364;41.816;12.448;2023-06-22T12:44:40;5.38;;;3.40;;
69253;SDS011;56364;41.816;12.448;2023-06-22T13:07:43;5.65;;;3.20;;
69253;SDS011;56364;41.816;12.448;2023-06-22T13:10:22;9.75;;;3.20;;
69253;SDS011;56364;41.816;12.448;2023-06-22T13:28:55;7.28;;;2.90;;
69253;SDS011;56364;41.816;12.448;2023-06-22T13:52:23;10.48;;;3.35;;
69253;SDS011;56364;41.816;12.448;2023-06-22T13:55:23;7.13;;;2.50;;
69253;SDS011;56364;41.816;12.448;2023-06-22T14:03:18;5.05;;;2.78;;
69253;SDS011;56364;41.816;12.448;2023-06-22T14:05:49;6.35;;;2.80;;
69253;SDS011;56364;41.816;12.448;2023-06-22T14:08:15;8.88;;;3.13;;
69253;SDS011;56364;41.816;12.448;2023-06-22T14:10:41;8.25;;;2.60;;
69253;SDS011;56364;41.816;12.448;2023-06-22T14:28:35;9.32;;;2.97;;
69253;SDS011;56364;41.816;12.448;2023-06-22T14:31:01;9.70;;;3.25;;
69253;SDS011;56364;41.816;12.448;2023-06-22T14:33:28;27.23;;;3.97;;
69253;SDS011;56364;41.816;12.448;2023-06-22T14:35:54;16.35;;;3.65;;
69253;SDS011;56364;41.816;12.448;2023-06-22T14:38:20;11.52;;;3.17;;
69253;SDS011;56364;41.816;12.448;2023-06-22T14:40:46;9.20;;;3.30;;
69253;SDS011;56364;41.816;12.448;2023-06-22T14:43:12;8.30;;;3.40;;
69253;SDS011;56364;41.816;12.448;2023-06-22T14:45:39;5.90;;;2.90;;
69253;SDS011;56364;41.816;12.448;2023-06-22T14:48:05;5.78;;;3.47;;
69253;SDS011;56364;41.816;12.448;2023-06-22T14:50:31;8.63;;;3.00;;
69253;SDS011;56364;41.816;12.448;2023-06-22T14:52:57;5.07;;;3.00;;
69253;SDS011;56364;41.816;12.448;2023-06-22T14:55:30;6.22;;;3.22;;
69253;SDS011;56364;41.816;12.448;2023-06-22T14:57:56;5.13;;;3.10;;
69253;SDS011;56364;41.816;12.448;2023-06-22T15:00:22;7.03;;;3.30;;
69253;SDS011;56364;41.816;12.448;2023-06-22T15:02:49;5.05;;;2.92;;
69253;SDS011;56364;41.816;12.448;2023-06-22T15:05:18;4.88;;;2.83;;
69253;SDS011;56364;41.816;12.448;2023-06-22T15:07:45;6.63;;;2.38;;
69253;SDS011;56364;41.816;12.448;2023-06-22T15:10:11;10.45;;;2.97;;
69253;SDS011;56364;41.816;12.448;2023-06-22T15:12:37;8.32;;;3.10;;
69253;SDS011;56364;41.816;12.448;2023-06-22T15:15:03;6.60;;;3.00;;
69253;SDS011;56364;41.816;12.448;2023-06-22T15:17:29;5.45;;;2.67;;
69253;SDS011;56364;41.816;12.448;2023-06-22T15:19:57;5.53;;;2.67;;
69253;SDS011;56364;41.816;12.448;2023-06-22T15:22:23;6.57;;;2.72;;
69253;SDS011;56364;41.816;12.448;2023-06-22T15:24:49;5.60;;;2.72;;
69253;SDS011;56364;41.816;12.448;2023-06-22T15:55:51;10.43;;;4.22;;
69253;SDS011;56364;41.816;12.448;2023-06-22T15:58:19;9.75;;;4.07;;
69253;SDS011;56364;41.816;12.448;2023-06-22T16:00:45;10.20;;;4.00;;
69253;SDS011;56364;41.816;12.448;2023-06-22T16:03:14;10.88;;;4.60;;
69253;SDS011;56364;41.816;12.448;2023-06-22T16:05:40;7.15;;;3.97;;
69253;SDS011;56364;41.816;12.448;2023-06-22T16:08:10;13.20;;;4.35;;
69253;SDS011;56364;41.816;12.448;2023-06-22T16:10:39;7.00;;;4.00;;
69253;SDS011;56364;41.816;12.448;2023-06-22T16:13:05;7.35;;;3.25;;
69253;SDS011;56364;41.816;12.448;2023-06-22T16:15:31;8.15;;;3.20;;
69253;SDS011;56364;41.816;12.448;2023-06-22T16:18:00;6.13;;;3.25;;
69253;SDS011;56364;41.816;12.448;2023-06-22T16:20:26;7.15;;;3.00;;
69253;SDS011;56364;41.816;12.448;2023-06-22T16:22:57;6.07;;;3.30;;
69253;SDS011;56364;41.816;12.448;2023-06-22T16:25:23;8.98;;;2.75;;
69253;SDS011;56364;41.816;12.448;2023-06-22T16:27:49;5.53;;;2.38;;
69253;SDS011;56364;41.816;12.448;2023-06-22T16:30:15;11.27;;;3.30;;
69253;SDS011;56364;41.816;12.448;2023-06-22T16:43:08;4.95;;;2.63;;
69253;SDS011;56364;41.816;12.448;2023-06-22T16:45:34;4.90;;;2.92;;
69253;SDS011;56364;41.816;12.448;2023-06-22T16:48:10;5.93;;;2.85;;
69253;SDS011;56364;41.816;12.448;2023-06-22T16:50:39;5.70;;;2.78;;
69253;SDS011;56364;41.816;12.448;2023-06-22T16:53:07;7.38;;;2.67;;
69253;SDS011;56364;41.816;12.448;2023-06-22T16:55:33;4.72;;;2.63;;
69253;SDS011;56364;41.816;12.448;2023-06-22T16:58:00;8.75;;;3.03;;
69253;SDS011;56364;41.816;12.448;2023-06-22T17:00:30;6.82;;;2.80;;
69253;SDS011;56364;41.816;12.448;2023-06-22T17:02:56;5.97;;;2.70;;
69253;SDS011;56364;41.816;12.448;2023-06-22T17:05:26;8.30;;;2.58;;
69253;SDS011;56364;41.816;12.448;2023-06-22T17:07:56;6.80;;;3.30;;
69253;SDS011;56364;41.816;12.448;2023-06-22T17:10:23;8.63;;;3.10;;
69253;SDS011;56364;41.816;12.448;2023-06-22T17:12:49;7.13;;;3.03;;
69253;SDS011;56364;41.816;12.448;2023-06-22T17:15:16;4.20;;;2.70;;
69253;SDS011;56364;41.816;12.448;2023-06-22T17:17:43;12.50;;;3.17;;
69253;SDS011;56364;41.816;12.448;2023-06-22T17:20:10;7.63;;;2.83;;
69253;SDS011;56364;41.816;12.448;2023-06-22T17:22:42;9.98;;;2.88;;
69253;SDS011;56364;41.816;12.448;2023-06-22T17:25:09;6.13;;;2.63;;
69253;SDS011;56364;41.816;12.448;2023-06-22T17:27:35;6.32;;;3.03;;
69253;SDS011;56364;41.816;12.448;2023-06-22T17:30:08;8.23;;;2.60;;
69253;SDS011;56364;41.816;12.448;2023-06-22T17:32:35;12.65;;;3.63;;
69253;SDS011;56364;41.816;12.448;2023-06-22T17:35:02;9.63;;;3.08;;
69253;SDS011;56364;41.816;12.448;2023-06-22T17:40:16;7.28;;;2.88;;
69253;SDS011;56364;41.816;12.448;2023-06-22T17:42:43;8.48;;;3.40;;
69253;SDS011;56364;41.816;12.448;2023-06-22T17:45:21;9.18;;;3.15;;
69253;SDS011;56364;41.816;12.448;2023-06-22T17:47:51;5.45;;;2.90;;
69253;SDS011;56364;41.816;12.448;2023-06-22T17:50:18;6.38;;;3.13;;
69253;SDS011;56364;41.816;12.448;2023-06-22T17:52:50;11.25;;;3.40;;
69253;SDS011;56364;41.816;12.448;2023-06-22T18:13:27;7.35;;;2.95;;
69253;SDS011;56364;41.816;12.448;2023-06-22T18:42:48;5.93;;;3.22;;
69253;SDS011;56364;41.816;12.448;2023-06-22T18:45:24;7.90;;;3.15;;
69253;SDS011;56364;41.816;12.448;2023-06-22T18:50:44;8.40;;;3.40;;
69253;SDS011;56364;41.816;12.448;2023-06-22T18:53:27;6.70;;;3.70;;
69253;SDS011;56364;41.816;12.448;2023-06-22T18:56:13;10.82;;;4.57;;
69253;SDS011;56364;41.816;12.448;2023-06-22T19:20:41;7.13;;;3.13;;
69253;SDS011;56364;41.816;12.448;2023-06-22T19:26:14;10.07;;;3.58;;
69253;SDS011;56364;41.816;12.448;2023-06-22T19:28:47;6.85;;;3.72;;
69253;SDS011;56364;41.816;12.448;2023-06-22T19:31:14;14.13;;;5.55;;
69253;SDS011;56364;41.816;12.448;2023-06-22T19:36:30;5.82;;;3.03;;
69253;SDS011;56364;41.816;12.448;2023-06-22T19:39:01;6.63;;;3.20;;
69253;SDS011;56364;41.816;12.448;2023-06-22T19:41:30;6.82;;;3.50;;
69253;SDS011;56364;41.816;12.448;2023-06-22T19:43:58;6.97;;;3.08;;
69253;SDS011;56364;41.816;12.448;2023-06-22T19:46:31;6.78;;;2.97;;
69253;SDS011;56364;41.816;12.448;2023-06-22T19:48:58;6.95;;;3.17;;
69253;SDS011;56364;41.816;12.448;2023-06-22T19:51:43;10.13;;;3.60;;
69253;SDS011;56364;41.816;12.448;2023-06-22T19:54:09;9.52;;;3.33;;
69253;SDS011;56364;41.816;12.448;2023-06-22T19:56:36;6.22;;;3.20;;
69253;SDS011;56364;41.816;12.448;2023-06-22T19:59:15;7.82;;;3.22;;
69253;SDS011;56364;41.816;12.448;2023-06-22T20:01:42;7.43;;;3.42;;
69253;SDS011;56364;41.816;12.448;2023-06-22T20:04:11;6.70;;;3.50;;
69253;SDS011;56364;41.816;12.448;2023-06-22T20:06:37;6.10;;;3.47;;
69253;SDS011;56364;41.816;12.448;2023-06-22T20:09:06;8.63;;;3.20;;
69253;SDS011;56364;41.816;12.448;2023-06-22T20:11:35;6.65;;;2.97;;
69253;SDS011;56364;41.816;12.448;2023-06-22T20:14:01;5.63;;;3.38;;
69253;SDS011;56364;41.816;12.448;2023-06-22T20:16:28;5.55;;;3.08;;
69253;SDS011;56364;41.816;12.448;2023-06-22T20:19:10;6.20;;;3.22;;
69253;SDS011;56364;41.816;12.448;2023-06-22T20:21:37;5.93;;;2.95;;
69253;SDS011;56364;41.816;12.448;2023-06-22T20:24:07;10.57;;;3.45;;
69253;SDS011;56364;41.816;12.448;2023-06-22T20:26:41;7.10;;;2.88;;
69253;SDS011;56364;41.816;12.448;2023-06-22T20:29:26;5.88;;;3.10;;
69253;SDS011;56364;41.816;12.448;2023-06-22T20:32:06;7.53;;;3.58;;
69253;SDS011;56364;41.816;12.448;2023-06-22T20:37:10;7.35;;;3.45;;
69253;SDS011;56364;41.816;12.448;2023-06-22T20:39:36;8.73;;;3.42;;